Time;durP1;ratioP1;P1;durP2;ratioP2;P2;SDS_P1;SDS_P2;PMS_P1;PMS_P2;Temp;Humidity;BMP_temperature;BMP_pressure;BME280_temperature;BME280_humidity;BME280_pressure;Samples;Min_cycle;Max_cycle;Signal;HPM_P1;HPM_P2
2023/04/05 00:00:49;;;;;;;43.78;41.30;;;8.80;99.90;;;;;;5209792;28;20056;-69
2023/04/05 00:03:20;;;;;;;40.95;38.40;;;8.80;99.90;;;;;;5189887;28;20030;-69
2023/04/05 00:05:53;;;;;;;44.92;42.30;;;8.90;99.90;;;;;;5188569;28;20434;-70
2023/04/05 00:08:25;;;;;;;45.50;42.55;;;8.90;99.90;;;;;;5189065;28;20380;-69
2023/04/05 00:10:56;;;;;;;44.47;41.47;;;9.10;99.90;;;;;;5189129;28;20104;-70
2023/04/05 00:13:27;;;;;;;44.83;42.22;;;9.00;99.90;;;;;;5188750;28;20164;-66
2023/04/05 00:15:59;;;;;;;44.03;41.33;;;9.00;99.90;;;;;;5188908;28;20033;-69
2023/04/05 00:18:32;;;;;;;46.30;43.22;;;8.60;99.90;;;;;;5188680;28;20041;-69
2023/04/05 00:21:04;;;;;;;47.90;44.95;;;8.90;99.90;;;;;;5188835;28;20053;-70
2023/04/05 00:23:38;;;;;;;46.58;43.97;;;8.70;99.90;;;;;;5188645;28;20029;-69
2023/04/05 00:26:09;;;;;;;48.22;45.28;;;8.60;99.90;;;;;;5188718;28;20065;-70
2023/04/05 00:28:40;;;;;;;51.72;48.60;;;8.40;99.90;;;;;;5188618;28;20529;-70
2023/04/05 00:31:11;;;;;;;49.83;46.75;;;8.50;99.90;;;;;;5188559;28;20097;-69
2023/04/05 00:33:41;;;;;;;46.78;43.95;;;8.40;99.90;;;;;;5188564;28;20022;-70
2023/04/05 00:36:17;;;;;;;50.90;47.92;;;8.60;99.90;;;;;;5188453;28;20076;-70
2023/04/05 00:38:48;;;;;;;48.47;45.67;;;8.50;99.90;;;;;;5188412;28;20040;-69
2023/04/05 00:41:19;;;;;;;46.75;43.95;;;8.60;99.90;;;;;;5188229;28;20034;-70
2023/04/05 00:43:50;;;;;;;49.58;46.03;;;8.40;99.90;;;;;;5188394;28;20033;-70
2023/04/05 00:46:22;;;;;;;45.78;43.03;;;8.40;99.90;;;;;;5188361;28;20100;-70
2023/04/05 00:48:52;;;;;;;46.17;43.40;;;8.50;99.90;;;;;;5186878;28;20092;-70
2023/04/05 00:51:24;;;;;;;45.85;43.35;;;8.60;99.90;;;;;;5187994;28;20481;-70
2023/04/05 00:53:54;;;;;;;49.20;46.40;;;8.50;99.90;;;;;;5188136;28;20103;-70
2023/04/05 00:56:27;;;;;;;48.50;45.80;;;8.60;99.90;;;;;;5187910;28;20402;-70
2023/04/05 00:58:58;;;;;;;48.83;45.95;;;8.40;99.90;;;;;;5188199;28;20160;-70
2023/04/05 01:01:36;;;;;;;42.47;40.05;;;8.60;99.90;;;;;;5187825;28;20548;-70
2023/04/05 01:04:10;;;;;;;48.38;45.67;;;8.60;99.90;;;;;;5187137;28;20022;-70
2023/04/05 01:06:41;;;;;;;46.97;44.28;;;8.40;99.90;;;;;;5186521;28;20022;-69
2023/04/05 01:09:30;;;;;;;47.20;44.22;;;8.50;99.90;;;;;;5188012;28;20351;-70
2023/04/05 01:12:05;;;;;;;44.70;42.10;;;8.50;99.90;;;;;;5187631;28;20045;-70
2023/04/05 01:14:48;;;;;;;47.03;44.28;;;8.80;99.90;;;;;;5187979;28;20190;-69
2023/04/05 01:17:21;;;;;;;46.53;43.92;;;8.50;99.90;;;;;;5187859;28;20022;-70
2023/04/05 01:19:57;;;;;;;45.00;42.55;;;8.50;99.90;;;;;;5187397;28;20046;-70
2023/04/05 01:22:46;;;;;;;46.65;43.92;;;8.40;99.90;;;;;;5187563;28;20038;-70
2023/04/05 01:25:42;;;;;;;46.90;43.95;;;8.60;99.90;;;;;;5187782;28;20401;-70
2023/04/05 01:28:51;;;;;;;50.95;48.13;;;8.60;99.90;;;;;;5187563;28;20548;-70
2023/04/05 01:31:40;;;;;;;44.67;42.25;;;8.70;99.90;;;;;;5191558;28;20021;-71
2023/04/05 01:34:25;;;;;;;49.80;46.78;;;8.60;99.90;;;;;;5194607;28;20092;-69
2023/04/05 01:37:00;;;;;;;45.58;43.08;;;8.30;99.90;;;;;;5187360;28;20025;-69
2023/04/05 01:39:34;;;;;;;48.72;46.03;;;8.40;99.90;;;;;;5187242;28;20033;-70
2023/04/05 01:42:05;;;;;;;43.15;40.88;;;8.60;99.90;;;;;;5187029;28;20087;-70
2023/04/05 01:44:35;;;;;;;43.25;40.92;;;8.40;99.90;;;;;;5187411;28;20529;-70
2023/04/05 01:47:06;;;;;;;40.42;38.08;;;8.50;99.90;;;;;;5185998;28;20030;-69
2023/04/05 01:49:37;;;;;;;45.22;42.75;;;8.30;99.90;;;;;;5185885;28;20095;-70
2023/04/05 01:52:08;;;;;;;45.20;42.50;;;8.20;99.90;;;;;;5186793;28;20045;-70
2023/04/05 01:54:39;;;;;;;46.05;43.55;;;8.20;99.90;;;;;;5187195;28;20113;-69
2023/04/05 01:57:09;;;;;;;46.50;43.90;;;8.30;99.90;;;;;;5187100;28;20030;-70
2023/04/05 01:59:40;;;;;;;48.20;45.53;;;8.30;99.90;;;;;;5186859;28;20026;-69
2023/04/05 02:02:11;;;;;;;41.70;39.45;;;8.20;99.90;;;;;;5186675;28;20083;-69
2023/04/05 02:04:42;;;;;;;49.05;46.22;;;8.20;99.90;;;;;;5186831;28;20087;-69
2023/04/05 02:07:13;;;;;;;45.75;43.15;;;8.20;99.90;;;;;;5186642;28;20105;-69
2023/04/05 02:09:43;;;;;;;44.75;42.15;;;8.30;99.90;;;;;;5186840;28;20157;-69
2023/04/05 02:12:14;;;;;;;42.75;40.45;;;8.30;99.90;;;;;;5185210;28;20036;-70
2023/04/05 02:14:45;;;;;;;48.88;46.17;;;8.40;99.90;;;;;;5186614;28;20022;-70
2023/04/05 02:17:16;;;;;;;48.13;45.53;;;8.00;99.90;;;;;;5186709;28;20095;-71
2023/04/05 02:19:48;;;;;;;45.10;42.63;;;8.00;99.90;;;;;;5186325;28;20050;-70
2023/04/05 02:22:20;;;;;;;49.22;46.45;;;8.10;99.90;;;;;;5186305;28;20125;-70
2023/04/05 02:24:50;;;;;;;47.83;45.13;;;8.20;99.90;;;;;;5186530;28;20015;-70
2023/04/05 02:27:21;;;;;;;48.47;45.58;;;7.90;99.90;;;;;;5194115;28;20366;-70
2023/04/05 02:29:54;;;;;;;46.42;43.83;;;8.00;99.90;;;;;;5205634;28;20069;-70
2023/04/05 02:32:25;;;;;;;47.45;44.88;;;7.90;99.90;;;;;;5202379;28;20076;-70
2023/04/05 02:34:57;;;;;;;48.33;45.80;;;8.00;99.90;;;;;;5186544;28;20466;-70
2023/04/05 02:37:27;;;;;;;46.53;44.05;;;8.10;99.90;;;;;;5185933;28;20038;-70
2023/04/05 02:39:58;;;;;;;48.97;46.38;;;8.10;99.90;;;;;;5186317;28;20486;-70
2023/04/05 02:42:29;;;;;;;44.22;41.72;;;7.90;99.90;;;;;;5185947;28;20084;-70
2023/04/05 02:45:00;;;;;;;46.25;43.55;;;8.00;99.90;;;;;;5185922;28;20030;-70
2023/04/05 02:47:31;;;;;;;48.67;45.85;;;7.80;99.90;;;;;;5186032;28;20030;-70
2023/04/05 02:50:01;;;;;;;48.95;46.13;;;7.80;99.90;;;;;;5185971;28;20363;-70
2023/04/05 02:52:33;;;;;;;45.63;42.83;;;7.80;99.90;;;;;;5201118;28;20485;-70
2023/04/05 02:55:05;;;;;;;50.60;47.60;;;7.70;99.90;;;;;;5184750;28;20026;-71
2023/04/05 02:57:36;;;;;;;52.08;49.15;;;7.90;99.90;;;;;;5186047;28;20029;-70
2023/04/05 03:00:08;;;;;;;50.17;47.25;;;7.80;99.90;;;;;;5185846;28;20379;-70
2023/04/05 03:02:38;;;;;;;52.92;49.25;;;7.90;99.90;;;;;;5184320;28;20029;-70
2023/04/05 03:05:09;;;;;;;46.28;43.75;;;7.90;99.90;;;;;;5185720;28;20024;-70
2023/04/05 03:07:41;;;;;;;49.03;46.42;;;7.50;99.90;;;;;;5185471;28;20531;-69
2023/04/05 03:10:13;;;;;;;46.83;44.22;;;7.50;99.90;;;;;;5185393;28;20021;-70
2023/04/05 03:12:45;;;;;;;48.58;45.88;;;7.60;99.90;;;;;;5185300;28;20018;-69
2023/04/05 03:15:16;;;;;;;54.22;51.03;;;7.50;99.90;;;;;;5185639;28;20088;-69
2023/04/05 03:17:47;;;;;;;49.70;46.97;;;7.40;99.90;;;;;;5185287;28;20018;-69
2023/04/05 03:20:17;;;;;;;49.35;46.38;;;7.30;99.90;;;;;;5185168;28;20052;-69
2023/04/05 03:22:48;;;;;;;51.53;48.67;;;7.50;99.90;;;;;;5184772;28;20030;-69
2023/04/05 03:25:19;;;;;;;48.83;46.17;;;7.40;99.90;;;;;;5185580;28;20099;-69
2023/04/05 03:27:51;;;;;;;57.45;54.30;;;7.60;99.90;;;;;;5184927;28;20500;-69
2023/04/05 03:30:22;;;;;;;52.30;49.20;;;7.60;99.90;;;;;;5185634;28;20030;-69
2023/04/05 03:32:53;;;;;;;53.40;50.42;;;7.40;99.90;;;;;;5184826;28;20141;-69
2023/04/05 03:35:24;;;;;;;52.42;49.63;;;7.50;99.90;;;;;;5184833;28;20444;-74
2023/04/05 03:37:55;;;;;;;52.80;49.70;;;7.20;99.90;;;;;;5183464;28;20406;-72
2023/04/05 03:40:26;;;;;;;54.38;51.47;;;7.40;99.90;;;;;;5184817;28;20533;-65
2023/04/05 03:42:57;;;;;;;49.33;46.70;;;7.40;99.90;;;;;;5185300;28;20053;-67
2023/04/05 03:45:30;;;;;;;61.35;57.83;;;7.60;99.90;;;;;;5185162;28;20030;-69
2023/04/05 03:48:01;;;;;;;54.40;51.45;;;7.40;99.90;;;;;;5184493;28;20401;-69
2023/04/05 03:50:32;;;;;;;48.65;45.92;;;7.50;99.90;;;;;;5184853;28;20476;-68
2023/04/05 03:53:03;;;;;;;55.03;51.75;;;7.60;99.90;;;;;;5184514;28;20045;-67
2023/04/05 03:55:34;;;;;;;56.78;53.78;;;7.60;99.90;;;;;;5184287;28;20037;-69
2023/04/05 03:58:05;;;;;;;55.17;52.28;;;7.20;99.90;;;;;;5185212;28;20018;-68
2023/04/05 04:00:35;;;;;;;58.03;54.95;;;7.00;99.90;;;;;;5184689;28;20065;-68
2023/04/05 04:03:06;;;;;;;53.92;51.10;;;7.10;99.90;;;;;;5185241;28;20149;-68
2023/04/05 04:05:37;;;;;;;54.08;51.10;;;7.10;99.90;;;;;;5184928;28;20452;-68
2023/04/05 04:08:08;;;;;;;59.17;55.88;;;7.30;99.90;;;;;;5185082;28;20131;-68
2023/04/05 04:10:39;;;;;;;60.58;57.17;;;7.40;99.90;;;;;;5185160;28;20030;-69
2023/04/05 04:13:10;;;;;;;55.65;52.50;;;7.60;99.90;;;;;;5185127;28;20025;-68
2023/04/05 04:15:41;;;;;;;56.75;53.60;;;7.30;99.90;;;;;;5184913;28;20033;-68
2023/04/05 04:18:12;;;;;;;61.70;58.30;;;7.10;99.90;;;;;;5184722;28;20045;-68
2023/04/05 04:20:42;;;;;;;59.47;56.17;;;7.30;99.90;;;;;;5184889;28;20041;-69
2023/04/05 04:23:13;;;;;;;54.42;51.40;;;7.10;99.90;;;;;;5183519;28;20382;-68
2023/04/05 04:25:44;;;;;;;54.30;51.20;;;7.50;99.90;;;;;;5183684;28;20018;-69
2023/04/05 04:28:18;;;;;;;54.65;51.70;;;7.40;99.90;;;;;;5184796;28;20029;-68
2023/04/05 04:30:49;;;;;;;54.35;51.35;;;7.50;99.90;;;;;;5184820;28;20072;-68
2023/04/05 04:33:19;;;;;;;54.63;51.35;;;7.20;99.90;;;;;;5184681;28;20050;-68
2023/04/05 04:35:53;;;;;;;58.97;55.45;;;7.10;99.90;;;;;;5184622;28;20029;-68
2023/04/05 04:38:24;;;;;;;57.63;54.33;;;7.40;99.90;;;;;;5184816;28;20029;-68
2023/04/05 04:40:57;;;;;;;57.25;53.78;;;7.20;99.90;;;;;;5188166;28;20045;-68
2023/04/05 04:43:27;;;;;;;58.70;55.40;;;7.20;99.90;;;;;;5188060;28;20036;-68
2023/04/05 04:45:58;;;;;;;60.10;56.42;;;7.40;99.90;;;;;;5188240;28;20030;-68
2023/04/05 04:48:32;;;;;;;59.28;56.08;;;7.30;99.90;;;;;;5188315;28;20049;-68
2023/04/05 04:51:03;;;;;;;59.65;56.17;;;7.20;99.90;;;;;;5188235;28;20022;-68
2023/04/05 04:53:34;;;;;;;53.60;50.25;;;7.70;99.90;;;;;;5188067;28;20049;-69
2023/04/05 04:56:08;;;;;;;53.13;50.15;;;7.50;99.90;;;;;;5188251;28;20474;-68
2023/04/05 04:58:39;;;;;;;56.88;53.55;;;7.60;99.90;;;;;;5188472;28;20389;-68
2023/04/05 05:01:10;;;;;;;59.53;55.35;;;7.60;99.90;;;;;;5188070;28;20034;-68
2023/04/05 05:03:41;;;;;;;57.92;54.47;;;7.20;99.90;;;;;;5188011;28;20029;-68
2023/04/05 05:06:16;;;;;;;59.95;56.55;;;6.90;99.90;;;;;;5187031;28;20033;-65
2023/04/05 05:08:47;;;;;;;64.55;60.97;;;6.70;99.90;;;;;;5186745;28;20473;-68
2023/04/05 05:11:18;;;;;;;61.60;57.72;;;7.10;99.90;;;;;;5187932;28;20370;-67
2023/04/05 05:13:49;;;;;;;68.57;63.97;;;7.10;99.90;;;;;;5187584;28;20045;-68
2023/04/05 05:16:21;;;;;;;61.65;58.20;;;7.00;99.90;;;;;;5187941;28;20041;-68
2023/04/05 05:18:52;;;;;;;62.42;58.90;;;6.90;99.90;;;;;;5187428;28;20053;-68
2023/04/05 05:21:23;;;;;;;59.40;56.25;;;6.80;99.90;;;;;;5187427;28;20038;-64
2023/04/05 05:23:54;;;;;;;66.68;63.10;;;6.60;99.90;;;;;;5187480;28;20038;-68
2023/04/05 05:26:25;;;;;;;63.80;59.80;;;7.00;99.90;;;;;;5187485;28;20034;-68
2023/04/05 05:29:00;;;;;;;64.47;60.50;;;6.70;99.90;;;;;;5186375;28;20413;-68
2023/04/05 05:31:32;;;;;;;70.40;65.95;;;7.00;99.90;;;;;;5187640;28;20026;-68
2023/04/05 05:34:03;;;;;;;66.38;62.75;;;6.90;99.90;;;;;;5187417;28;20026;-68
2023/04/05 05:36:34;;;;;;;62.67;59.22;;;6.90;99.90;;;;;;5187461;28;20466;-68
2023/04/05 05:39:06;;;;;;;60.17;56.92;;;6.90;99.90;;;;;;5187448;28;20057;-65
2023/04/05 05:41:37;;;;;;;62.47;59.03;;;6.70;99.90;;;;;;5187016;28;20041;-68
2023/04/05 05:44:08;;;;;;;60.78;57.28;;;6.90;99.90;;;;;;5187337;28;20033;-69
2023/04/05 05:46:39;;;;;;;58.95;55.55;;;7.00;99.90;;;;;;5187301;28;20042;-66
2023/04/05 05:49:10;;;;;;;59.95;56.50;;;6.90;99.90;;;;;;5187036;28;20072;-68
2023/04/05 05:51:41;;;;;;;65.70;61.88;;;7.20;99.90;;;;;;5186510;28;20481;-68
2023/04/05 05:54:12;;;;;;;66.97;62.97;;;7.00;99.90;;;;;;5187172;28;20037;-69
2023/04/05 05:56:43;;;;;;;70.10;66.15;;;6.80;99.90;;;;;;5187113;28;20032;-68
2023/04/05 05:59:14;;;;;;;65.13;61.55;;;6.80;99.90;;;;;;5186924;28;20029;-68
2023/04/05 06:01:45;;;;;;;64.07;60.42;;;6.70;99.90;;;;;;5186621;28;20037;-68
2023/04/05 06:04:17;;;;;;;60.70;57.28;;;6.80;99.90;;;;;;5185671;28;20034;-68
2023/04/05 06:06:48;;;;;;;58.95;55.75;;;6.90;99.90;;;;;;5186734;28;20030;-68
2023/04/05 06:09:21;;;;;;;65.68;62.15;;;6.80;99.90;;;;;;5186778;28;20037;-68
2023/04/05 06:11:52;;;;;;;59.40;56.05;;;7.00;99.90;;;;;;5186570;28;20489;-69
2023/04/05 06:14:24;;;;;;;66.28;62.58;;;7.10;99.90;;;;;;5186847;28;20049;-64
2023/04/05 06:16:55;;;;;;;67.90;64.10;;;7.30;99.90;;;;;;5186770;28;20053;-68
2023/04/05 06:19:26;;;;;;;62.85;59.20;;;7.00;99.90;;;;;;5185750;28;20076;-68
2023/04/05 06:21:59;;;;;;;65.18;61.38;;;7.00;99.90;;;;;;5186054;28;20744;-69
2023/04/05 06:24:30;;;;;;;61.65;58.17;;;7.20;99.90;;;;;;5186318;28;20022;-68
2023/04/05 06:27:01;;;;;;;61.08;57.55;;;7.40;99.90;;;;;;5186476;28;20018;-69
2023/04/05 06:29:32;;;;;;;64.20;60.45;;;7.00;99.90;;;;;;5185291;28;20052;-65
2023/04/05 06:32:03;;;;;;;65.22;61.25;;;7.20;99.90;;;;;;5186332;28;20029;-69
2023/04/05 06:34:33;;;;;;;61.55;57.67;;;7.10;99.90;;;;;;5186356;28;20022;-68
2023/04/05 06:37:05;;;;;;;62.70;59.15;;;7.30;99.90;;;;;;5186256;28;20369;-68
2023/04/05 06:39:35;;;;;;;62.42;59.08;;;7.00;99.90;;;;;;5186270;28;20041;-69
2023/04/05 06:42:06;;;;;;;63.78;60.13;;;7.00;99.90;;;;;;5186200;28;20022;-68
2023/04/05 06:44:37;;;;;;;68.88;64.90;;;6.90;99.90;;;;;;5186272;28;20026;-69
2023/04/05 06:47:08;;;;;;;56.28;53.13;;;7.00;99.90;;;;;;5186057;28;20030;-69
2023/04/05 06:49:39;;;;;;;51.78;48.88;;;7.10;99.90;;;;;;5185913;28;20033;-68
2023/04/05 06:52:09;;;;;;;55.55;52.28;;;7.00;99.90;;;;;;5185898;28;20030;-69
2023/04/05 06:54:40;;;;;;;57.08;53.88;;;7.20;99.90;;;;;;5185998;28;20030;-68
2023/04/05 06:57:11;;;;;;;59.30;55.85;;;7.10;99.90;;;;;;5185918;28;20032;-68
2023/04/05 06:59:42;;;;;;;53.30;50.22;;;7.30;99.90;;;;;;5185874;28;20529;-68
2023/04/05 07:02:13;;;;;;;53.25;50.35;;;7.50;99.90;;;;;;5185200;28;20026;-68
2023/04/05 07:04:43;;;;;;;53.25;50.10;;;7.40;99.90;;;;;;5185852;28;20428;-68
2023/04/05 07:07:16;;;;;;;52.67;49.67;;;7.30;99.90;;;;;;5185645;28;20030;-68
2023/04/05 07:09:46;;;;;;;45.03;42.33;;;7.30;99.90;;;;;;5185695;28;20424;-69
2023/04/05 07:12:17;;;;;;;48.97;46.10;;;7.50;99.90;;;;;;5185737;28;20030;-68
2023/04/05 07:14:48;;;;;;;52.72;49.58;;;7.40;99.90;;;;;;5185689;28;20409;-69
2023/04/05 07:17:19;;;;;;;48.83;45.97;;;7.30;99.90;;;;;;5185734;28;20037;-68
2023/04/05 07:19:50;;;;;;;51.13;48.25;;;7.30;99.90;;;;;;5185332;28;20402;-65
2023/04/05 07:22:22;;;;;;;48.17;45.20;;;7.40;99.90;;;;;;5185450;28;20104;-68
2023/04/05 07:24:54;;;;;;;50.67;47.85;;;7.60;99.90;;;;;;5185688;28;20022;-69
2023/04/05 07:27:25;;;;;;;44.10;41.50;;;7.80;99.90;;;;;;5184162;28;20029;-68
2023/04/05 07:29:56;;;;;;;53.00;49.97;;;7.80;99.90;;;;;;5185822;28;20072;-69
2023/04/05 07:32:27;;;;;;;44.28;41.70;;;7.70;99.90;;;;;;5185899;28;20084;-69
2023/04/05 07:34:58;;;;;;;47.90;44.90;;;7.70;99.90;;;;;;5185473;28;20030;-68
2023/04/05 07:37:28;;;;;;;45.42;42.85;;;7.70;99.90;;;;;;5185608;28;20029;-68
2023/04/05 07:39:59;;;;;;;52.13;49.08;;;7.70;99.90;;;;;;5185337;28;20132;-68
2023/04/05 07:42:30;;;;;;;47.05;44.33;;;7.70;99.90;;;;;;5184256;28;20030;-68
2023/04/05 07:45:01;;;;;;;45.63;42.92;;;8.10;99.90;;;;;;5185288;28;20029;-68
2023/04/05 07:47:36;;;;;;;43.35;40.78;;;7.70;99.90;;;;;;5185375;28;20026;-69
2023/04/05 07:50:08;;;;;;;46.85;43.85;;;7.90;99.90;;;;;;5185414;28;20037;-68
2023/04/05 07:52:40;;;;;;;52.55;49.50;;;7.80;99.90;;;;;;5185299;28;20029;-66
2023/04/05 07:55:11;;;;;;;47.65;44.92;;;8.10;99.90;;;;;;5185351;28;20370;-68
2023/04/05 07:57:42;;;;;;;48.88;46.00;;;8.10;99.90;;;;;;5185256;28;20026;-68
2023/04/05 08:00:14;;;;;;;43.90;41.35;;;8.10;99.90;;;;;;5185180;28;20037;-68
2023/04/05 08:02:45;;;;;;;44.70;41.80;;;8.30;99.90;;;;;;5185225;28;20026;-68
2023/04/05 08:05:16;;;;;;;54.55;51.45;;;8.20;99.90;;;;;;5185118;28;20018;-68
2023/04/05 08:07:46;;;;;;;50.00;46.92;;;8.10;99.90;;;;;;5185115;28;20022;-69
2023/04/05 08:10:17;;;;;;;50.08;47.03;;;8.20;99.90;;;;;;5185102;28;20026;-68
2023/04/05 08:12:48;;;;;;;54.60;51.22;;;7.80;99.90;;;;;;5185549;28;20072;-68
2023/04/05 08:15:19;;;;;;;40.03;37.50;;;7.80;99.90;;;;;;5189098;28;20489;-68
2023/04/05 08:17:49;;;;;;;46.85;44.00;;;8.00;99.90;;;;;;5188679;28;20100;-68
2023/04/05 08:20:20;;;;;;;52.42;49.42;;;8.10;99.90;;;;;;5188957;28;20040;-65
2023/04/05 08:22:51;;;;;;;51.80;48.90;;;7.70;99.90;;;;;;5188866;28;20030;-68
2023/04/05 08:25:22;;;;;;;53.10;50.10;;;7.90;99.90;;;;;;5188831;28;20017;-68
2023/04/05 08:27:52;;;;;;;46.97;44.45;;;7.80;99.90;;;;;;5188767;28;20054;-68
2023/04/05 08:30:23;;;;;;;53.80;50.83;;;7.90;99.90;;;;;;5188715;28;20018;-68
2023/04/05 08:32:54;;;;;;;48.65;46.03;;;7.60;99.90;;;;;;5188634;28;20433;-68
2023/04/05 08:35:25;;;;;;;51.72;48.92;;;7.50;99.90;;;;;;5188548;28;20057;-68
2023/04/05 08:37:55;;;;;;;52.33;49.47;;;7.70;99.90;;;;;;5187421;28;20071;-68
2023/04/05 08:40:42;;;;;;;66.10;62.35;;;7.80;99.90;;;;;;5188549;28;20049;-68
2023/04/05 08:43:31;;;;;;;60.22;56.65;;;7.60;99.90;;;;;;5188545;28;20022;-68
2023/04/05 08:46:07;;;;;;;55.72;52.55;;;7.60;99.90;;;;;;5188606;28;20112;-69
2023/04/05 08:48:40;;;;;;;52.97;49.88;;;7.80;99.90;;;;;;5188608;28;20018;-68
2023/04/05 08:51:11;;;;;;;53.97;51.03;;;8.00;99.90;;;;;;5188553;28;20061;-68
2023/04/05 08:53:42;;;;;;;62.25;58.50;;;7.80;99.90;;;;;;5188462;28;20018;-68
2023/04/05 08:56:17;;;;;;;60.65;57.15;;;7.80;99.90;;;;;;5188385;28;20116;-69
2023/04/05 08:59:06;;;;;;;61.92;58.42;;;7.60;99.90;;;;;;5188465;28;20022;-69
2023/04/05 09:01:42;;;;;;;55.38;52.35;;;7.90;99.90;;;;;;5188313;28;20417;-68
2023/04/05 09:04:20;;;;;;;53.33;50.42;;;7.90;99.90;;;;;;5188190;28;20030;-68
2023/04/05 09:06:54;;;;;;;50.83;47.97;;;8.00;99.90;;;;;;5187976;28;20080;-69
2023/04/05 09:09:27;;;;;;;51.28;48.45;;;8.00;99.90;;;;;;5187945;28;20394;-68
2023/04/05 09:11:58;;;;;;;49.90;46.83;;;8.20;99.90;;;;;;5188003;28;20018;-68
2023/04/05 09:14:32;;;;;;;58.75;55.38;;;8.30;99.90;;;;;;5188043;28;20037;-69
2023/04/05 09:17:03;;;;;;;58.00;54.78;;;8.10;99.90;;;;;;5187849;28;20018;-69
2023/04/05 09:19:34;;;;;;;52.17;49.22;;;8.10;99.90;;;;;;5187448;28;20558;-69
2023/04/05 09:22:06;;;;;;;49.42;46.70;;;8.00;99.90;;;;;;5187665;28;20517;-68
2023/04/05 09:24:42;;;;;;;55.20;52.13;;;8.20;99.90;;;;;;5187039;28;20026;-68
2023/04/05 09:27:18;;;;;;;57.08;53.65;;;8.20;99.90;;;;;;5187757;28;20026;-68
2023/04/05 09:29:49;;;;;;;49.35;46.63;;;8.50;99.90;;;;;;5187569;28;20034;-68
2023/04/05 09:32:26;;;;;;;52.45;49.65;;;8.20;99.90;;;;;;5186357;28;20065;-68
2023/04/05 09:35:02;;;;;;;54.17;50.85;;;8.20;99.90;;;;;;5187365;28;20022;-68
2023/04/05 09:37:33;;;;;;;56.85;53.67;;;8.00;99.90;;;;;;5187591;28;20065;-69
2023/04/05 09:40:05;;;;;;;45.10;42.35;;;8.50;99.90;;;;;;5187331;28;20038;-69
2023/04/05 09:42:44;;;;;;;54.15;50.83;;;8.40;99.90;;;;;;5187374;28;20101;-68
2023/04/05 09:45:17;;;;;;;56.92;53.72;;;8.50;99.90;;;;;;5187492;28;20449;-69
2023/04/05 09:47:55;;;;;;;48.08;45.40;;;8.70;99.90;;;;;;5187484;28;20478;-67
2023/04/05 09:50:26;;;;;;;51.00;48.30;;;8.60;99.90;;;;;;5187357;28;20065;-68
2023/04/05 09:53:14;;;;;;;49.08;46.47;;;8.90;99.90;;;;;;5187102;28;20470;-68
2023/04/05 09:55:45;;;;;;;45.70;43.25;;;8.90;99.90;;;;;;5185900;28;20033;-69
2023/04/05 09:58:20;;;;;;;49.17;46.28;;;9.30;99.90;;;;;;5187047;28;20030;-68
2023/04/05 10:00:54;;;;;;;44.47;42.17;;;9.20;99.90;;;;;;5187107;28;20030;-69
2023/04/05 10:03:26;;;;;;;37.42;35.42;;;9.40;99.90;;;;;;5187039;28;20079;-68
2023/04/05 10:05:57;;;;;;;38.83;36.60;;;9.10;99.90;;;;;;5186961;28;20018;-69
2023/04/05 10:08:27;;;;;;;46.50;43.90;;;9.40;99.90;;;;;;5186738;28;20109;-69
2023/04/05 10:11:00;;;;;;;47.40;44.80;;;9.10;99.90;;;;;;5186984;28;20091;-69
2023/04/05 10:13:32;;;;;;;45.45;42.65;;;9.10;99.90;;;;;;5186778;28;20040;-68
2023/04/05 10:16:09;;;;;;;35.97;33.97;;;9.00;99.90;;;;;;5186715;28;20438;-68
2023/04/05 10:18:48;;;;;;;41.95;39.55;;;9.30;99.90;;;;;;5186496;28;20045;-65
2023/04/05 10:21:27;;;;;;;47.47;44.88;;;9.40;99.90;;;;;;5186635;28;20393;-68
2023/04/05 10:24:08;;;;;;;37.22;35.13;;;9.50;99.90;;;;;;5186793;28;20022;-69
2023/04/05 10:26:55;;;;;;;37.05;34.92;;;9.50;99.90;;;;;;5186509;28;20037;-68
2023/04/05 10:29:34;;;;;;;35.10;33.13;;;10.20;99.90;;;;;;5186670;28;20026;-66
2023/04/05 10:32:14;;;;;;;37.25;35.25;;;10.00;99.90;;;;;;5186435;28;20065;-68
2023/04/05 10:34:55;;;;;;;37.13;35.07;;;9.70;99.90;;;;;;5186291;28;20033;-68
2023/04/05 10:37:34;;;;;;;45.33;42.92;;;9.60;99.90;;;;;;5185388;28;20025;-69
2023/04/05 10:40:08;;;;;;;32.57;30.87;;;10.00;99.90;;;;;;5186147;28;20038;-69
2023/04/05 10:42:42;;;;;;;35.00;32.90;;;9.60;99.90;;;;;;5186286;28;20069;-69
2023/04/05 10:45:18;;;;;;;40.65;38.25;;;10.00;99.90;;;;;;5186212;28;20034;-68
2023/04/05 10:48:14;;;;;;;38.58;36.30;;;9.80;99.90;;;;;;5184587;28;20101;-69
2023/04/05 10:50:47;;;;;;;35.15;33.25;;;9.70;99.90;;;;;;5186102;28;20037;-69
2023/04/05 10:53:19;;;;;;;37.92;35.88;;;10.50;99.90;;;;;;5186079;28;20018;-69
2023/04/05 10:55:52;;;;;;;32.30;30.60;;;10.40;99.90;;;;;;5185963;28;20058;-69
2023/04/05 10:58:24;;;;;;;29.83;28.13;;;10.60;99.90;;;;;;5186019;28;20465;-69
2023/04/05 11:00:56;;;;;;;34.17;32.28;;;10.60;99.90;;;;;;5186170;28;20041;-69
2023/04/05 11:03:47;;;;;;;31.70;30.10;;;10.80;99.90;;;;;;5186179;28;20032;-68
2023/04/05 11:06:19;;;;;;;;;;;10.70;99.90;;;;;;5186217;28;20032;-69
2023/04/05 11:08:54;;;;;;;30.25;28.65;;;10.70;99.90;;;;;;5185808;28;19913;-69
2023/04/05 11:11:26;;;;;;;33.20;31.35;;;10.40;99.90;;;;;;5185856;28;20030;-69
2023/04/05 11:13:57;;;;;;;33.25;31.45;;;10.60;99.90;;;;;;5185820;28;20022;-68
2023/04/05 11:16:39;;;;;;;36.65;34.58;;;10.30;99.90;;;;;;5185851;28;20032;-69
2023/04/05 11:19:09;;;;;;;33.72;31.88;;;10.40;99.90;;;;;;5185458;28;20049;-69
2023/04/05 11:21:40;;;;;;;32.08;30.38;;;10.40;99.90;;;;;;5185645;28;20117;-65
2023/04/05 11:24:16;;;;;;;34.75;32.75;;;10.30;99.90;;;;;;5185629;28;20022;-69
2023/04/05 11:26:47;;;;;;;37.83;35.75;;;11.00;99.90;;;;;;5185580;28;20034;-69
2023/04/05 11:29:18;;;;;;;37.92;35.90;;;10.50;99.90;;;;;;5185440;28;20037;-68
2023/04/05 11:31:59;;;;;;;40.22;37.90;;;10.30;99.90;;;;;;5185524;28;20037;-69
2023/04/05 11:34:35;;;;;;;37.40;35.30;;;10.60;99.90;;;;;;5185446;28;20097;-68
2023/04/05 11:37:06;;;;;;;42.08;39.88;;;10.80;99.90;;;;;;5185380;28;20026;-68
2023/04/05 11:39:38;;;;;;;39.67;37.60;;;10.50;99.90;;;;;;5185536;28;20030;-68
2023/04/05 11:42:11;;;;;;;38.67;36.58;;;10.30;99.90;;;;;;5185216;28;20044;-69
2023/04/05 11:44:46;;;;;;;36.53;34.63;;;10.70;99.90;;;;;;5185310;28;20022;-69
2023/04/05 11:47:20;;;;;;;38.65;36.42;;;10.60;99.90;;;;;;5185787;28;20096;-69
2023/04/05 11:49:51;;;;;;;36.33;34.50;;;10.10;99.90;;;;;;5188931;28;20026;-69
2023/04/05 11:52:22;;;;;;;38.67;36.58;;;10.00;99.90;;;;;;5189448;28;20042;-69
2023/04/05 11:54:53;;;;;;;43.47;41.22;;;10.20;99.90;;;;;;5189367;28;20029;-69
2023/04/05 11:57:24;;;;;;;39.55;37.50;;;10.40;99.90;;;;;;5189360;28;20030;-69
2023/04/05 11:59:55;;;;;;;42.83;40.53;;;10.60;99.90;;;;;;5189343;28;20084;-69
2023/04/05 12:02:26;;;;;;;40.95;38.72;;;10.60;99.90;;;;;;5189281;28;20112;-69
2023/04/05 12:04:57;;;;;;;42.17;39.97;;;10.20;99.90;;;;;;5189175;28;20152;-69
2023/04/05 12:07:31;;;;;;;33.97;31.98;;;10.40;99.90;;;;;;5189208;28;20696;-69
2023/04/05 12:10:07;;;;;;;35.45;33.58;;;10.20;99.90;;;;;;5189268;28;20022;-65
2023/04/05 12:12:40;;;;;;;34.15;32.33;;;10.50;99.90;;;;;;5189048;28;20040;-69
2023/04/05 12:15:22;;;;;;;35.53;33.67;;;10.30;99.90;;;;;;5189378;28;20033;-68
2023/04/05 12:17:53;;;;;;;36.58;34.70;;;10.20;99.90;;;;;;5188826;28;20030;-68
2023/04/05 12:20:25;;;;;;;34.60;32.78;;;10.30;99.90;;;;;;5188914;28;20046;-69
2023/04/05 12:22:56;;;;;;;43.10;40.80;;;10.00;99.90;;;;;;5189034;28;20026;-69
2023/04/05 12:25:27;;;;;;;45.75;42.97;;;10.20;99.90;;;;;;5189013;28;20373;-69
2023/04/05 12:28:07;;;;;;;39.95;37.80;;;10.30;99.90;;;;;;5188811;28;20034;-69
2023/04/05 12:30:57;;;;;;;38.58;36.58;;;10.40;99.90;;;;;;5187714;28;20529;-69
2023/04/05 12:33:32;;;;;;;45.88;43.53;;;10.40;99.90;;;;;;5187521;28;20037;-64
2023/04/05 12:36:04;;;;;;;34.97;33.17;;;10.20;99.90;;;;;;5188648;28;20464;-69
2023/04/05 12:38:39;;;;;;;35.30;33.50;;;10.40;99.90;;;;;;5188653;28;20018;-69
2023/04/05 12:41:10;;;;;;;35.72;33.88;;;10.40;99.90;;;;;;5188613;28;20034;-69
2023/04/05 12:43:42;;;;;;;38.45;36.30;;;10.60;99.90;;;;;;5188612;28;20030;-69
2023/04/05 12:46:16;;;;;;;44.30;41.95;;;10.60;99.90;;;;;;5188527;28;20025;-69
2023/04/05 12:48:50;;;;;;;36.03;34.08;;;10.10;99.90;;;;;;5188336;28;20160;-65
2023/04/05 12:51:23;;;;;;;37.40;35.25;;;10.00;99.90;;;;;;5188465;28;20046;-69
2023/04/05 12:53:56;;;;;;;37.55;35.50;;;10.10;99.90;;;;;;5188418;28;20383;-69
2023/04/05 12:56:29;;;;;;;39.15;37.05;;;10.10;99.90;;;;;;5188389;28;20029;-69
2023/04/05 12:59:00;;;;;;;41.70;39.58;;;10.00;99.90;;;;;;5188045;28;20026;-69
2023/04/05 13:01:30;;;;;;;40.35;37.97;;;9.90;99.90;;;;;;5187429;28;20041;-69
2023/04/05 13:04:04;;;;;;;37.63;35.65;;;9.70;99.90;;;;;;5188169;28;20448;-68